sensor_id;sensor_type;location;lat;lon;timestamp;temperature;humidity
22249;DHT22;67538;52.180;5.646;2023-07-30T00:00:35;15.20;99.90
22249;DHT22;67538;52.180;5.646;2023-07-30T00:03:02;15.10;99.90
22249;DHT22;67538;52.180;5.646;2023-07-30T00:05:29;15.00;99.90
22249;DHT22;67538;52.180;5.646;2023-07-30T00:07:56;15.00;99.90
22249;DHT22;67538;52.180;5.646;2023-07-30T00:10:24;15.00;99.90
22249;DHT22;67538;52.180;5.646;2023-07-30T00:12:51;15.00;99.90
22249;DHT22;67538;52.180;5.646;2023-07-30T00:15:18;15.00;99.90
22249;DHT22;67538;52.180;5.646;2023-07-30T00:17:45;15.00;99.90
22249;DHT22;67538;52.180;5.646;2023-07-30T00:20:12;14.90;99.90
22249;DHT22;67538;52.180;5.646;2023-07-30T00:22:39;15.00;99.90
22249;DHT22;67538;52.180;5.646;2023-07-30T00:25:07;14.90;99.90
22249;DHT22;67538;52.180;5.646;2023-07-30T00:27:36;14.90;99.90
22249;DHT22;67538;52.180;5.646;2023-07-30T00:30:04;14.90;99.90
22249;DHT22;67538;52.180;5.646;2023-07-30T00:32:31;14.90;99.90
22249;DHT22;67538;52.180;5.646;2023-07-30T00:34:58;14.80;99.90
22249;DHT22;67538;52.180;5.646;2023-07-30T00:37:25;14.80;99.90
22249;DHT22;67538;52.180;5.646;2023-07-30T00:39:52;14.80;99.90
22249;DHT22;67538;52.180;5.646;2023-07-30T00:42:19;14.80;99.90
22249;DHT22;67538;52.180;5.646;2023-07-30T00:44:48;14.80;99.90
22249;DHT22;67538;52.180;5.646;2023-07-30T00:47:15;14.70;99.90
22249;DHT22;67538;52.180;5.646;2023-07-30T00:49:42;14.70;99.90
22249;DHT22;67538;52.180;5.646;2023-07-30T00:52:09;14.70;99.90
22249;DHT22;67538;52.180;5.646;2023-07-30T00:54:37;14.60;99.90
22249;DHT22;67538;52.180;5.646;2023-07-30T00:57:05;14.70;99.90
22249;DHT22;67538;52.180;5.646;2023-07-30T00:59:33;14.60;99.90
22249;DHT22;67538;52.180;5.646;2023-07-30T01:02:02;14.60;99.90
22249;DHT22;67538;52.180;5.646;2023-07-30T01:04:31;14.70;99.90
22249;DHT22;67538;52.180;5.646;2023-07-30T01:06:58;14.70;99.90
22249;DHT22;67538;52.180;5.646;2023-07-30T01:09:25;14.70;99.90
22249;DHT22;67538;52.180;5.646;2023-07-30T01:11:53;14.80;99.90
22249;DHT22;67538;52.180;5.646;2023-07-30T01:14:22;14.70;99.90
22249;DHT22;67538;52.180;5.646;2023-07-30T01:16:51;14.70;99.90
22249;DHT22;67538;52.180;5.646;2023-07-30T01:19:20;14.70;99.90
22249;DHT22;67538;52.180;5.646;2023-07-30T01:21:48;14.70;99.90
22249;DHT22;67538;52.180;5.646;2023-07-30T01:24:15;14.70;99.90
22249;DHT22;67538;52.180;5.646;2023-07-30T01:26:44;14.70;99.90
22249;DHT22;67538;52.180;5.646;2023-07-30T01:29:16;14.70;99.90
22249;DHT22;67538;52.180;5.646;2023-07-30T01:31:51;14.70;99.90
22249;DHT22;67538;52.180;5.646;2023-07-30T01:34:19;14.70;99.90
22249;DHT22;67538;52.180;5.646;2023-07-30T01:36:49;14.80;99.90
22249;DHT22;67538;52.180;5.646;2023-07-30T01:39:17;14.80;99.90
22249;DHT22;67538;52.180;5.646;2023-07-30T01:41:44;14.80;99.90
22249;DHT22;67538;52.180;5.646;2023-07-30T01:44:11;14.80;99.90
22249;DHT22;67538;52.180;5.646;2023-07-30T01:46:38;14.80;99.90
22249;DHT22;67538;52.180;5.646;2023-07-30T01:49:05;14.80;99.90
22249;DHT22;67538;52.180;5.646;2023-07-30T01:51:32;14.80;99.90
22249;DHT22;67538;52.180;5.646;2023-07-30T01:54:01;14.90;99.90
22249;DHT22;67538;52.180;5.646;2023-07-30T01:56:28;14.90;99.90
22249;DHT22;67538;52.180;5.646;2023-07-30T01:58:55;14.90;99.90
22249;DHT22;67538;52.180;5.646;2023-07-30T02:01:22;14.90;99.90
22249;DHT22;67538;52.180;5.646;2023-07-30T02:03:49;14.90;99.90
22249;DHT22;67538;52.180;5.646;2023-07-30T02:06:16;15.00;99.90
22249;DHT22;67538;52.180;5.646;2023-07-30T02:08:43;14.90;99.90
22249;DHT22;67538;52.180;5.646;2023-07-30T02:11:11;14.90;99.90
22249;DHT22;67538;52.180;5.646;2023-07-30T02:13:38;14.90;99.90
22249;DHT22;67538;52.180;5.646;2023-07-30T02:16:05;14.90;99.90
22249;DHT22;67538;52.180;5.646;2023-07-30T02:18:33;14.90;99.90
22249;DHT22;67538;52.180;5.646;2023-07-30T02:21:00;14.90;99.90
22249;DHT22;67538;52.180;5.646;2023-07-30T02:23:27;14.90;99.90
22249;DHT22;67538;52.180;5.646;2023-07-30T02:25:54;15.00;99.90
22249;DHT22;67538;52.180;5.646;2023-07-30T02:28:23;14.90;99.90
22249;DHT22;67538;52.180;5.646;2023-07-30T02:30:50;15.00;99.90
22249;DHT22;67538;52.180;5.646;2023-07-30T02:33:17;15.00;99.90
22249;DHT22;67538;52.180;5.646;2023-07-30T02:35:44;14.90;99.90
22249;DHT22;67538;52.180;5.646;2023-07-30T02:38:11;14.90;99.90
22249;DHT22;67538;52.180;5.646;2023-07-30T02:40:38;14.90;99.90
22249;DHT22;67538;52.180;5.646;2023-07-30T02:43:05;14.90;99.90
22249;DHT22;67538;52.180;5.646;2023-07-30T02:45:33;14.90;99.90
22249;DHT22;67538;52.180;5.646;2023-07-30T02:48:00;15.00;99.90
22249;DHT22;67538;52.180;5.646;2023-07-30T02:50:28;14.90;99.90
22249;DHT22;67538;52.180;5.646;2023-07-30T02:52:55;14.90;99.90
22249;DHT22;67538;52.180;5.646;2023-07-30T02:55:22;14.90;99.90
22249;DHT22;67538;52.180;5.646;2023-07-30T02:57:49;14.90;99.90
22249;DHT22;67538;52.180;5.646;2023-07-30T03:00:17;14.90;99.90
22249;DHT22;67538;52.180;5.646;2023-07-30T03:02:45;14.90;99.90
22249;DHT22;67538;52.180;5.646;2023-07-30T03:05:12;14.80;99.90
22249;DHT22;67538;52.180;5.646;2023-07-30T03:07:39;14.80;99.90
22249;DHT22;67538;52.180;5.646;2023-07-30T03:10:06;14.80;99.90
22249;DHT22;67538;52.180;5.646;2023-07-30T03:12:33;14.80;99.90
22249;DHT22;67538;52.180;5.646;2023-07-30T03:15:00;14.80;99.90
22249;DHT22;67538;52.180;5.646;2023-07-30T03:17:27;14.80;99.90
22249;DHT22;67538;52.180;5.646;2023-07-30T03:19:56;14.80;99.90
22249;DHT22;67538;52.180;5.646;2023-07-30T03:22:23;14.70;99.90
22249;DHT22;67538;52.180;5.646;2023-07-30T03:24:50;14.70;99.90
22249;DHT22;67538;52.180;5.646;2023-07-30T03:27:17;14.60;99.90
22249;DHT22;67538;52.180;5.646;2023-07-30T03:29:44;14.60;99.90
22249;DHT22;67538;52.180;5.646;2023-07-30T03:32:11;14.60;99.90
22249;DHT22;67538;52.180;5.646;2023-07-30T03:34:38;14.60;99.90
22249;DHT22;67538;52.180;5.646;2023-07-30T03:37:07;14.50;99.90
22249;DHT22;67538;52.180;5.646;2023-07-30T03:39:33;14.50;99.90
22249;DHT22;67538;52.180;5.646;2023-07-30T03:42:00;14.50;99.90
22249;DHT22;67538;52.180;5.646;2023-07-30T03:44:28;14.50;99.90
22249;DHT22;67538;52.180;5.646;2023-07-30T03:46:55;14.50;99.90
22249;DHT22;67538;52.180;5.646;2023-07-30T03:49:22;14.50;99.90
22249;DHT22;67538;52.180;5.646;2023-07-30T03:51:49;14.50;99.90
22249;DHT22;67538;52.180;5.646;2023-07-30T03:54:17;14.50;99.90
22249;DHT22;67538;52.180;5.646;2023-07-30T03:56:44;14.50;99.90
22249;DHT22;67538;52.180;5.646;2023-07-30T03:59:11;14.50;99.90
22249;DHT22;67538;52.180;5.646;2023-07-30T04:01:38;14.50;99.90
22249;DHT22;67538;52.180;5.646;2023-07-30T04:04:07;14.50;99.90
22249;DHT22;67538;52.180;5.646;2023-07-30T04:06:34;14.60;99.90
22249;DHT22;67538;52.180;5.646;2023-07-30T04:09:01;14.60;99.90
22249;DHT22;67538;52.180;5.646;2023-07-30T04:11:30;14.60;99.90
22249;DHT22;67538;52.180;5.646;2023-07-30T04:13:57;14.60;99.90
22249;DHT22;67538;52.180;5.646;2023-07-30T04:16:24;14.70;99.90
22249;DHT22;67538;52.180;5.646;2023-07-30T04:18:51;14.70;99.90
22249;DHT22;67538;52.180;5.646;2023-07-30T04:21:18;14.70;99.90
22249;DHT22;67538;52.180;5.646;2023-07-30T04:23:45;14.70;99.90
22249;DHT22;67538;52.180;5.646;2023-07-30T04:26:12;14.80;99.90
22249;DHT22;67538;52.180;5.646;2023-07-30T04:28:40;14.80;99.90
22249;DHT22;67538;52.180;5.646;2023-07-30T04:31:07;14.80;99.90
22249;DHT22;67538;52.180;5.646;2023-07-30T04:33:34;14.80;99.90
22249;DHT22;67538;52.180;5.646;2023-07-30T04:36:01;14.80;99.90
22249;DHT22;67538;52.180;5.646;2023-07-30T04:38:29;14.80;99.90
22249;DHT22;67538;52.180;5.646;2023-07-30T04:40:57;14.90;99.90
22249;DHT22;67538;52.180;5.646;2023-07-30T04:43:25;14.90;99.90
22249;DHT22;67538;52.180;5.646;2023-07-30T04:45:53;14.90;99.90
22249;DHT22;67538;52.180;5.646;2023-07-30T04:48:20;15.00;99.90
22249;DHT22;67538;52.180;5.646;2023-07-30T04:50:47;15.00;99.90
22249;DHT22;67538;52.180;5.646;2023-07-30T04:53:14;15.10;99.90
22249;DHT22;67538;52.180;5.646;2023-07-30T04:55:42;15.10;99.90
22249;DHT22;67538;52.180;5.646;2023-07-30T04:58:09;15.10;99.90
22249;DHT22;67538;52.180;5.646;2023-07-30T05:00:36;15.20;99.90
22249;DHT22;67538;52.180;5.646;2023-07-30T05:03:05;15.20;99.90
22249;DHT22;67538;52.180;5.646;2023-07-30T05:05:32;15.20;99.90
22249;DHT22;67538;52.180;5.646;2023-07-30T05:07:59;15.20;99.90
22249;DHT22;67538;52.180;5.646;2023-07-30T05:10:26;15.30;99.90
22249;DHT22;67538;52.180;5.646;2023-07-30T05:12:53;15.30;99.90
22249;DHT22;67538;52.180;5.646;2023-07-30T05:15:20;15.30;99.90
22249;DHT22;67538;52.180;5.646;2023-07-30T05:17:47;15.40;99.90
22249;DHT22;67538;52.180;5.646;2023-07-30T05:20:15;15.40;99.90
22249;DHT22;67538;52.180;5.646;2023-07-30T05:22:43;15.50;99.90
22249;DHT22;67538;52.180;5.646;2023-07-30T05:25:10;15.60;99.90
22249;DHT22;67538;52.180;5.646;2023-07-30T05:27:37;15.60;99.90
22249;DHT22;67538;52.180;5.646;2023-07-30T05:30:05;15.70;99.90
22249;DHT22;67538;52.180;5.646;2023-07-30T05:32:32;15.70;99.90
22249;DHT22;67538;52.180;5.646;2023-07-30T05:34:59;15.70;99.90
22249;DHT22;67538;52.180;5.646;2023-07-30T05:37:28;15.80;99.90
22249;DHT22;67538;52.180;5.646;2023-07-30T05:39:56;15.80;99.90
22249;DHT22;67538;52.180;5.646;2023-07-30T05:42:23;15.90;99.90
22249;DHT22;67538;52.180;5.646;2023-07-30T05:44:50;15.90;99.90
22249;DHT22;67538;52.180;5.646;2023-07-30T05:47:17;15.90;99.90
22249;DHT22;67538;52.180;5.646;2023-07-30T05:49:44;16.00;99.90
22249;DHT22;67538;52.180;5.646;2023-07-30T05:52:11;16.00;99.90
22249;DHT22;67538;52.180;5.646;2023-07-30T05:54:39;16.00;99.90
22249;DHT22;67538;52.180;5.646;2023-07-30T05:57:06;16.10;99.90
22249;DHT22;67538;52.180;5.646;2023-07-30T05:59:33;16.10;99.90
22249;DHT22;67538;52.180;5.646;2023-07-30T06:02:02;16.10;99.90
22249;DHT22;67538;52.180;5.646;2023-07-30T06:04:29;16.20;99.90
22249;DHT22;67538;52.180;5.646;2023-07-30T06:06:59;16.20;99.90
22249;DHT22;67538;52.180;5.646;2023-07-30T06:09:26;16.30;99.90
22249;DHT22;67538;52.180;5.646;2023-07-30T06:11:56;16.30;99.90
22249;DHT22;67538;52.180;5.646;2023-07-30T06:14:23;16.30;99.90
22249;DHT22;67538;52.180;5.646;2023-07-30T06:16:51;16.40;99.90
22249;DHT22;67538;52.180;5.646;2023-07-30T06:19:18;16.50;99.90
22249;DHT22;67538;52.180;5.646;2023-07-30T06:21:45;16.50;99.90
22249;DHT22;67538;52.180;5.646;2023-07-30T06:24:12;16.40;99.90
22249;DHT22;67538;52.180;5.646;2023-07-30T06:26:39;16.40;99.90
22249;DHT22;67538;52.180;5.646;2023-07-30T06:29:08;16.40;99.90
22249;DHT22;67538;52.180;5.646;2023-07-30T06:31:35;16.50;99.90
22249;DHT22;67538;52.180;5.646;2023-07-30T06:34:02;16.50;99.90
22249;DHT22;67538;52.180;5.646;2023-07-30T06:36:29;16.50;99.90
22249;DHT22;67538;52.180;5.646;2023-07-30T06:38:56;16.50;99.90
22249;DHT22;67538;52.180;5.646;2023-07-30T06:41:23;16.60;99.90
22249;DHT22;67538;52.180;5.646;2023-07-30T06:43:50;16.50;99.90
22249;DHT22;67538;52.180;5.646;2023-07-30T06:46:19;16.60;99.90
22249;DHT22;67538;52.180;5.646;2023-07-30T06:48:46;16.60;99.90
22249;DHT22;67538;52.180;5.646;2023-07-30T06:51:13;16.60;99.90
22249;DHT22;67538;52.180;5.646;2023-07-30T06:53:40;16.70;99.90
22249;DHT22;67538;52.180;5.646;2023-07-30T06:56:07;16.70;99.90
22249;DHT22;67538;52.180;5.646;2023-07-30T06:58:34;16.70;99.90
22249;DHT22;67538;52.180;5.646;2023-07-30T07:01:01;16.70;99.90
22249;DHT22;67538;52.180;5.646;2023-07-30T07:03:29;16.80;99.90
22249;DHT22;67538;52.180;5.646;2023-07-30T07:05:56;16.70;99.90
22249;DHT22;67538;52.180;5.646;2023-07-30T07:08:24;16.70;99.90
22249;DHT22;67538;52.180;5.646;2023-07-30T07:10:51;16.70;99.90
22249;DHT22;67538;52.180;5.646;2023-07-30T07:13:18;16.80;99.90
22249;DHT22;67538;52.180;5.646;2023-07-30T07:15:45;16.80;99.90
22249;DHT22;67538;52.180;5.646;2023-07-30T07:18:12;16.80;99.90
22249;DHT22;67538;52.180;5.646;2023-07-30T07:20:40;16.80;99.90
22249;DHT22;67538;52.180;5.646;2023-07-30T07:23:07;16.90;99.90
22249;DHT22;67538;52.180;5.646;2023-07-30T07:25:34;16.90;99.90
22249;DHT22;67538;52.180;5.646;2023-07-30T07:28:03;16.90;99.90
22249;DHT22;67538;52.180;5.646;2023-07-30T07:30:30;16.90;99.90
22249;DHT22;67538;52.180;5.646;2023-07-30T07:32:57;16.80;99.90
22249;DHT22;67538;52.180;5.646;2023-07-30T07:35:24;16.80;99.90
22249;DHT22;67538;52.180;5.646;2023-07-30T07:37:53;16.90;99.90
22249;DHT22;67538;52.180;5.646;2023-07-30T07:40:20;16.90;99.90
22249;DHT22;67538;52.180;5.646;2023-07-30T07:42:47;17.00;99.90
22249;DHT22;67538;52.180;5.646;2023-07-30T07:45:14;17.00;99.90
22249;DHT22;67538;52.180;5.646;2023-07-30T07:47:41;17.10;99.90
22249;DHT22;67538;52.180;5.646;2023-07-30T07:50:08;17.20;99.90
22249;DHT22;67538;52.180;5.646;2023-07-30T07:52:36;17.10;99.90
22249;DHT22;67538;52.180;5.646;2023-07-30T07:55:05;17.10;99.90
22249;DHT22;67538;52.180;5.646;2023-07-30T07:57:32;17.20;99.90
22249;DHT22;67538;52.180;5.646;2023-07-30T07:59:59;17.30;99.90
22249;DHT22;67538;52.180;5.646;2023-07-30T08:02:26;17.30;99.90
22249;DHT22;67538;52.180;5.646;2023-07-30T08:04:53;17.30;99.90
22249;DHT22;67538;52.180;5.646;2023-07-30T08:07:20;17.40;99.90
22249;DHT22;67538;52.180;5.646;2023-07-30T08:09:48;17.70;99.90
22249;DHT22;67538;52.180;5.646;2023-07-30T08:12:19;17.80;99.90
22249;DHT22;67538;52.180;5.646;2023-07-30T08:14:46;17.70;99.90
22249;DHT22;67538;52.180;5.646;2023-07-30T08:17:13;17.60;99.90
22249;DHT22;67538;52.180;5.646;2023-07-30T08:19:41;17.50;99.90
22249;DHT22;67538;52.180;5.646;2023-07-30T08:22:08;17.50;99.90
22249;DHT22;67538;52.180;5.646;2023-07-30T08:24:35;17.50;99.90
22249;DHT22;67538;52.180;5.646;2023-07-30T08:27:02;17.70;99.90
22249;DHT22;67538;52.180;5.646;2023-07-30T08:29:30;17.90;99.90
22249;DHT22;67538;52.180;5.646;2023-07-30T08:31:57;18.10;99.90
22249;DHT22;67538;52.180;5.646;2023-07-30T08:34:24;18.10;99.90
22249;DHT22;67538;52.180;5.646;2023-07-30T08:36:51;17.90;99.90
22249;DHT22;67538;52.180;5.646;2023-07-30T08:39:18;17.80;99.90
22249;DHT22;67538;52.180;5.646;2023-07-30T08:41:46;17.70;99.90
22249;DHT22;67538;52.180;5.646;2023-07-30T08:44:13;17.70;99.90
22249;DHT22;67538;52.180;5.646;2023-07-30T08:46:41;17.70;99.90
22249;DHT22;67538;52.180;5.646;2023-07-30T08:49:08;17.70;99.90
22249;DHT22;67538;52.180;5.646;2023-07-30T08:51:36;17.70;99.90
22249;DHT22;67538;52.180;5.646;2023-07-30T08:54:04;17.60;99.90
22249;DHT22;67538;52.180;5.646;2023-07-30T08:56:32;17.50;99.90
22249;DHT22;67538;52.180;5.646;2023-07-30T08:59:00;17.40;99.90
22249;DHT22;67538;52.180;5.646;2023-07-30T09:01:30;17.40;99.90
22249;DHT22;67538;52.180;5.646;2023-07-30T09:04:00;17.40;99.90
22249;DHT22;67538;52.180;5.646;2023-07-30T09:06:28;17.50;99.90
22249;DHT22;67538;52.180;5.646;2023-07-30T09:08:55;17.60;99.90
22249;DHT22;67538;52.180;5.646;2023-07-30T09:11:25;17.70;99.90
22249;DHT22;67538;52.180;5.646;2023-07-30T09:13:53;17.90;99.90
22249;DHT22;67538;52.180;5.646;2023-07-30T09:16:25;18.10;99.90
22249;DHT22;67538;52.180;5.646;2023-07-30T09:18:52;18.60;99.90
22249;DHT22;67538;52.180;5.646;2023-07-30T09:21:29;19.00;99.90
22249;DHT22;67538;52.180;5.646;2023-07-30T09:23:57;19.00;99.90
22249;DHT22;67538;52.180;5.646;2023-07-30T09:26:29;19.00;99.90
22249;DHT22;67538;52.180;5.646;2023-07-30T09:28:56;19.00;99.90
22249;DHT22;67538;52.180;5.646;2023-07-30T09:31:23;19.10;99.90
22249;DHT22;67538;52.180;5.646;2023-07-30T09:33:50;19.20;99.90
22249;DHT22;67538;52.180;5.646;2023-07-30T09:36:19;19.00;99.90
22249;DHT22;67538;52.180;5.646;2023-07-30T09:38:47;18.60;99.90
22249;DHT22;67538;52.180;5.646;2023-07-30T09:41:15;18.60;99.90
22249;DHT22;67538;52.180;5.646;2023-07-30T09:43:42;18.50;99.90
22249;DHT22;67538;52.180;5.646;2023-07-30T09:46:09;18.40;99.90
22249;DHT22;67538;52.180;5.646;2023-07-30T09:48:36;18.40;99.90
22249;DHT22;67538;52.180;5.646;2023-07-30T09:51:04;18.40;99.90
22249;DHT22;67538;52.180;5.646;2023-07-30T09:53:31;18.40;99.90
22249;DHT22;67538;52.180;5.646;2023-07-30T09:56:02;18.40;99.90
22249;DHT22;67538;52.180;5.646;2023-07-30T09:58:29;18.40;99.90
22249;DHT22;67538;52.180;5.646;2023-07-30T10:00:58;18.60;99.90
22249;DHT22;67538;52.180;5.646;2023-07-30T10:03:26;18.70;99.90
22249;DHT22;67538;52.180;5.646;2023-07-30T10:06:03;18.70;99.90
22249;DHT22;67538;52.180;5.646;2023-07-30T10:08:34;18.80;99.90
22249;DHT22;67538;52.180;5.646;2023-07-30T10:11:05;19.00;99.90
22249;DHT22;67538;52.180;5.646;2023-07-30T10:13:35;19.10;99.90
22249;DHT22;67538;52.180;5.646;2023-07-30T10:16:04;19.20;99.90
22249;DHT22;67538;52.180;5.646;2023-07-30T10:18:38;19.40;99.90
22249;DHT22;67538;52.180;5.646;2023-07-30T10:21:07;19.60;99.90
22249;DHT22;67538;52.180;5.646;2023-07-30T10:23:35;19.90;99.90
22249;DHT22;67538;52.180;5.646;2023-07-30T10:26:10;19.90;99.90
22249;DHT22;67538;52.180;5.646;2023-07-30T10:28:37;20.20;99.90
22249;DHT22;67538;52.180;5.646;2023-07-30T10:31:09;20.40;99.90
22249;DHT22;67538;52.180;5.646;2023-07-30T10:33:46;20.30;99.90
22249;DHT22;67538;52.180;5.646;2023-07-30T10:36:13;20.40;99.90
22249;DHT22;67538;52.180;5.646;2023-07-30T10:38:40;20.30;99.90
22249;DHT22;67538;52.180;5.646;2023-07-30T10:41:12;20.30;99.90
22249;DHT22;67538;52.180;5.646;2023-07-30T10:43:41;20.60;99.90
22249;DHT22;67538;52.180;5.646;2023-07-30T10:46:09;20.60;99.90
22249;DHT22;67538;52.180;5.646;2023-07-30T10:48:37;20.40;99.90
22249;DHT22;67538;52.180;5.646;2023-07-30T10:51:06;20.50;99.90
22249;DHT22;67538;52.180;5.646;2023-07-30T10:53:33;20.90;99.90
22249;DHT22;67538;52.180;5.646;2023-07-30T10:56:03;21.20;99.90
22249;DHT22;67538;52.180;5.646;2023-07-30T10:58:33;21.00;99.90
22249;DHT22;67538;52.180;5.646;2023-07-30T11:01:01;21.00;99.90
22249;DHT22;67538;52.180;5.646;2023-07-30T11:03:29;21.00;99.90
22249;DHT22;67538;52.180;5.646;2023-07-30T11:05:57;20.60;99.90
22249;DHT22;67538;52.180;5.646;2023-07-30T11:08:32;20.50;99.90
22249;DHT22;67538;52.180;5.646;2023-07-30T11:10:59;20.20;99.90
22249;DHT22;67538;52.180;5.646;2023-07-30T11:13:27;20.00;99.90
22249;DHT22;67538;52.180;5.646;2023-07-30T11:15:55;20.00;99.90
22249;DHT22;67538;52.180;5.646;2023-07-30T11:18:22;20.20;99.90
22249;DHT22;67538;52.180;5.646;2023-07-30T11:20:49;20.40;99.90
22249;DHT22;67538;52.180;5.646;2023-07-30T11:23:18;20.60;99.90
22249;DHT22;67538;52.180;5.646;2023-07-30T11:25:46;20.50;99.90
22249;DHT22;67538;52.180;5.646;2023-07-30T11:28:15;20.40;99.90
22249;DHT22;67538;52.180;5.646;2023-07-30T11:30:42;20.20;99.90
22249;DHT22;67538;52.180;5.646;2023-07-30T11:33:16;20.10;99.90
22249;DHT22;67538;52.180;5.646;2023-07-30T11:35:43;19.90;99.90
22249;DHT22;67538;52.180;5.646;2023-07-30T11:38:11;19.90;99.90
22249;DHT22;67538;52.180;5.646;2023-07-30T11:40:39;19.80;99.90
22249;DHT22;67538;52.180;5.646;2023-07-30T11:43:07;19.70;99.90
22249;DHT22;67538;52.180;5.646;2023-07-30T11:45:34;19.70;99.90
22249;DHT22;67538;52.180;5.646;2023-07-30T11:48:07;19.70;99.90
22249;DHT22;67538;52.180;5.646;2023-07-30T11:50:50;19.90;99.90
22249;DHT22;67538;52.180;5.646;2023-07-30T11:53:18;19.90;99.90
22249;DHT22;67538;52.180;5.646;2023-07-30T11:55:45;19.90;99.90
22249;DHT22;67538;52.180;5.646;2023-07-30T11:58:13;19.90;99.90
22249;DHT22;67538;52.180;5.646;2023-07-30T12:00:41;20.00;99.90
22249;DHT22;67538;52.180;5.646;2023-07-30T12:03:11;20.20;99.90
22249;DHT22;67538;52.180;5.646;2023-07-30T12:05:38;20.40;99.90
22249;DHT22;67538;52.180;5.646;2023-07-30T12:08:16;20.70;99.90
22249;DHT22;67538;52.180;5.646;2023-07-30T12:10:46;20.80;99.90
22249;DHT22;67538;52.180;5.646;2023-07-30T12:13:19;21.10;99.90
22249;DHT22;67538;52.180;5.646;2023-07-30T12:15:51;21.00;99.90
22249;DHT22;67538;52.180;5.646;2023-07-30T12:18:18;20.80;99.90
22249;DHT22;67538;52.180;5.646;2023-07-30T12:20:46;20.80;99.90
22249;DHT22;67538;52.180;5.646;2023-07-30T12:23:14;21.10;99.90
22249;DHT22;67538;52.180;5.646;2023-07-30T12:25:41;21.00;99.90
22249;DHT22;67538;52.180;5.646;2023-07-30T12:28:08;21.10;99.90
22249;DHT22;67538;52.180;5.646;2023-07-30T12:30:35;21.10;99.90
22249;DHT22;67538;52.180;5.646;2023-07-30T12:33:03;21.00;99.90
22249;DHT22;67538;52.180;5.646;2023-07-30T12:35:30;20.80;99.90
22249;DHT22;67538;52.180;5.646;2023-07-30T12:37:58;20.80;99.90
22249;DHT22;67538;52.180;5.646;2023-07-30T12:40:26;20.70;99.90
22249;DHT22;67538;52.180;5.646;2023-07-30T12:42:55;20.70;99.90
22249;DHT22;67538;52.180;5.646;2023-07-30T12:45:22;21.00;99.90
22249;DHT22;67538;52.180;5.646;2023-07-30T12:47:49;21.20;99.90
22249;DHT22;67538;52.180;5.646;2023-07-30T12:50:16;21.30;99.90
22249;DHT22;67538;52.180;5.646;2023-07-30T12:52:43;21.50;99.90
22249;DHT22;67538;52.180;5.646;2023-07-30T12:55:10;21.70;99.90
22249;DHT22;67538;52.180;5.646;2023-07-30T12:57:39;21.40;99.90
22249;DHT22;67538;52.180;5.646;2023-07-30T13:00:07;21.50;99.90
22249;DHT22;67538;52.180;5.646;2023-07-30T13:02:34;21.10;99.90
22249;DHT22;67538;52.180;5.646;2023-07-30T13:05:01;20.80;99.90
22249;DHT22;67538;52.180;5.646;2023-07-30T13:07:29;20.70;99.90
22249;DHT22;67538;52.180;5.646;2023-07-30T13:10:04;20.90;99.90
22249;DHT22;67538;52.180;5.646;2023-07-30T13:12:31;20.90;99.90
22249;DHT22;67538;52.180;5.646;2023-07-30T13:14:59;21.00;99.90
22249;DHT22;67538;52.180;5.646;2023-07-30T13:17:27;20.70;99.90
22249;DHT22;67538;52.180;5.646;2023-07-30T13:19:54;20.60;99.90
22249;DHT22;67538;52.180;5.646;2023-07-30T13:22:21;20.60;99.90
22249;DHT22;67538;52.180;5.646;2023-07-30T13:24:48;20.80;99.90
22249;DHT22;67538;52.180;5.646;2023-07-30T13:27:16;20.90;99.90
22249;DHT22;67538;52.180;5.646;2023-07-30T13:29:43;21.00;99.90
22249;DHT22;67538;52.180;5.646;2023-07-30T13:32:11;21.20;99.90
22249;DHT22;67538;52.180;5.646;2023-07-30T13:34:38;21.00;99.90
22249;DHT22;67538;52.180;5.646;2023-07-30T13:37:06;20.80;99.90
22249;DHT22;67538;52.180;5.646;2023-07-30T13:39:33;20.50;99.90
22249;DHT22;67538;52.180;5.646;2023-07-30T13:42:00;20.50;99.90
22249;DHT22;67538;52.180;5.646;2023-07-30T13:44:27;20.40;99.90
22249;DHT22;67538;52.180;5.646;2023-07-30T13:46:54;20.30;99.90
22249;DHT22;67538;52.180;5.646;2023-07-30T13:49:23;20.20;99.90
22249;DHT22;67538;52.180;5.646;2023-07-30T13:51:50;20.20;99.90
22249;DHT22;67538;52.180;5.646;2023-07-30T13:54:17;20.30;99.90
22249;DHT22;67538;52.180;5.646;2023-07-30T13:56:44;20.30;99.90
22249;DHT22;67538;52.180;5.646;2023-07-30T13:59:11;20.30;99.90
22249;DHT22;67538;52.180;5.646;2023-07-30T14:01:38;20.30;99.90
22249;DHT22;67538;52.180;5.646;2023-07-30T14:04:05;20.30;99.90
22249;DHT22;67538;52.180;5.646;2023-07-30T14:06:33;20.40;99.90
22249;DHT22;67538;52.180;5.646;2023-07-30T14:09:00;20.60;99.90
22249;DHT22;67538;52.180;5.646;2023-07-30T14:11:28;20.90;99.90
22249;DHT22;67538;52.180;5.646;2023-07-30T14:13:55;21.00;99.90
22249;DHT22;67538;52.180;5.646;2023-07-30T14:16:23;21.20;99.90
22249;DHT22;67538;52.180;5.646;2023-07-30T14:18:50;21.30;99.90
22249;DHT22;67538;52.180;5.646;2023-07-30T14:21:17;21.20;99.90
22249;DHT22;67538;52.180;5.646;2023-07-30T14:23:46;21.00;99.90
22249;DHT22;67538;52.180;5.646;2023-07-30T14:26:13;20.80;99.90
22249;DHT22;67538;52.180;5.646;2023-07-30T14:28:40;20.70;99.90
22249;DHT22;67538;52.180;5.646;2023-07-30T14:31:07;20.50;99.90
22249;DHT22;67538;52.180;5.646;2023-07-30T14:33:34;20.40;99.90
22249;DHT22;67538;52.180;5.646;2023-07-30T14:36:03;20.20;99.90
22249;DHT22;67538;52.180;5.646;2023-07-30T14:38:30;20.20;99.90
22249;DHT22;67538;52.180;5.646;2023-07-30T14:41:01;20.10;99.90
22249;DHT22;67538;52.180;5.646;2023-07-30T14:43:28;20.00;99.90
22249;DHT22;67538;52.180;5.646;2023-07-30T14:45:55;20.00;99.90
22249;DHT22;67538;52.180;5.646;2023-07-30T14:48:22;20.20;99.90
22249;DHT22;67538;52.180;5.646;2023-07-30T14:50:49;20.50;99.90
22249;DHT22;67538;52.180;5.646;2023-07-30T14:53:16;20.70;99.90
22249;DHT22;67538;52.180;5.646;2023-07-30T14:55:43;20.60;99.90
22249;DHT22;67538;52.180;5.646;2023-07-30T14:58:12;20.30;99.90
22249;DHT22;67538;52.180;5.646;2023-07-30T15:00:39;20.10;99.90
22249;DHT22;67538;52.180;5.646;2023-07-30T15:03:06;20.00;99.90
22249;DHT22;67538;52.180;5.646;2023-07-30T15:05:33;19.90;99.90
22249;DHT22;67538;52.180;5.646;2023-07-30T15:08:01;20.00;99.90
22249;DHT22;67538;52.180;5.646;2023-07-30T15:10:28;20.00;99.90
22249;DHT22;67538;52.180;5.646;2023-07-30T15:12:55;20.00;99.90
22249;DHT22;67538;52.180;5.646;2023-07-30T15:15:24;19.90;99.90
22249;DHT22;67538;52.180;5.646;2023-07-30T15:17:51;19.90;99.90
22249;DHT22;67538;52.180;5.646;2023-07-30T15:20:18;20.00;99.90
22249;DHT22;67538;52.180;5.646;2023-07-30T15:22:46;20.00;99.90
22249;DHT22;67538;52.180;5.646;2023-07-30T15:25:13;20.00;99.90
22249;DHT22;67538;52.180;5.646;2023-07-30T15:27:40;20.00;99.90
22249;DHT22;67538;52.180;5.646;2023-07-30T15:30:07;20.00;99.90
22249;DHT22;67538;52.180;5.646;2023-07-30T15:32:41;20.00;99.90